Time;durP1;ratioP1;P1;durP2;ratioP2;P2;SDS_P1;SDS_P2;PMS_P1;PMS_P2;Temp;Humidity;BMP_temperature;BMP_pressure;BME280_temperature;BME280_humidity;BME280_pressure;Samples;Min_cycle;Max_cycle;Signal;HPM_P1;HPM_P2
2023/09/15 00:01:41;;;;;;;6.40;1.45;;;13.30;99.90;;;12.12;100.00;97972.03;5054959;28;20045;-72
2023/09/15 00:04:11;;;;;;;5.07;1.13;;;13.30;99.90;;;12.12;100.00;97972.03;5059551;28;20521;-72
2023/09/15 00:06:40;;;;;;;4.38;1.00;;;13.30;99.90;;;12.15;100.00;97960.66;5052070;28;20572;-72
2023/09/15 00:09:15;;;;;;;5.82;0.93;;;13.30;99.90;;;12.19;100.00;97964.81;5052783;28;20048;-72
2023/09/15 00:11:43;;;;;;;5.38;1.02;;;13.30;99.90;;;12.19;100.00;97970.03;5057147;28;20041;-72
2023/09/15 00:14:13;;;;;;;5.18;0.88;;;13.30;99.90;;;12.07;100.00;97965.34;5051850;28;20058;-72
2023/09/15 00:16:44;;;;;;;4.15;1.13;;;13.30;99.90;;;11.95;100.00;97971.91;5056213;28;20406;-72
2023/09/15 00:19:14;;;;;;;5.35;1.52;;;13.20;99.90;;;11.62;100.00;97971.50;5058631;28;20045;-72
2023/09/15 00:21:44;;;;;;;3.15;0.90;;;13.10;99.90;;;11.60;100.00;97976.75;5056261;28;20040;-72
2023/09/15 00:24:11;;;;;;;5.13;0.80;;;13.00;99.90;;;11.76;100.00;97970.94;5071632;28;20041;-72
2023/09/15 00:26:38;;;;;;;6.47;1.05;;;12.90;99.90;;;11.64;100.00;97969.69;5054248;28;20053;-72
2023/09/15 00:29:07;;;;;;;6.70;0.90;;;12.90;99.90;;;11.41;100.00;97975.81;5052043;28;20068;-71
2023/09/15 00:31:35;;;;;;;5.55;0.90;;;12.80;99.90;;;11.14;100.00;97975.13;5053052;28;20041;-72
2023/09/15 00:34:04;;;;;;;5.75;0.88;;;12.60;99.90;;;11.26;100.00;97969.44;5058447;28;20048;-71
2023/09/15 00:36:32;;;;;;;4.68;1.33;;;12.60;99.90;;;11.24;100.00;97974.72;5052304;28;20049;-72
2023/09/15 00:39:01;;;;;;;4.95;1.08;;;12.50;99.90;;;11.07;100.00;97980.56;5044487;28;20143;-72
2023/09/15 00:41:28;;;;;;;7.53;1.00;;;12.40;99.90;;;11.31;100.00;97977.91;5051652;28;20044;-73
2023/09/15 00:43:55;;;;;;;4.85;1.25;;;12.40;99.90;;;11.32;100.00;97976.19;5053853;28;20045;-72
2023/09/15 00:46:23;;;;;;;6.07;0.82;;;12.40;99.90;;;11.42;100.00;97975.72;5050624;28;20057;-71
2023/09/15 00:48:51;;;;;;;2.65;0.70;;;12.40;99.90;;;11.30;100.00;97963.22;5047016;28;20558;-73
2023/09/15 00:51:21;;;;;;;5.82;1.13;;;12.30;99.90;;;11.23;100.00;97967.81;5048811;28;20045;-72
2023/09/15 00:53:49;;;;;;;4.07;0.90;;;12.30;99.90;;;11.04;100.00;97966.84;5052573;28;20053;-73
2023/09/15 00:56:17;;;;;;;3.05;1.05;;;12.30;99.90;;;10.91;100.00;97965.63;5054439;28;20131;-72
2023/09/15 00:58:45;;;;;;;8.43;1.20;;;12.30;99.90;;;10.72;100.00;97962.84;5055181;28;20049;-72
2023/09/15 01:01:13;;;;;;;4.00;0.90;;;12.20;99.90;;;10.93;100.00;97969.00;5056249;28;20443;-72
2023/09/15 01:03:43;;;;;;;5.80;1.65;;;12.20;99.90;;;10.90;100.00;97967.34;5054075;28;20424;-72
2023/09/15 01:06:13;;;;;;;2.42;0.77;;;12.10;99.90;;;10.75;100.00;97970.53;5054660;28;20059;-71
2023/09/15 01:08:41;;;;;;;4.80;1.05;;;12.00;99.90;;;10.68;100.00;97964.72;5055295;28;20390;-72
2023/09/15 01:11:10;;;;;;;5.22;0.93;;;12.00;99.90;;;10.50;100.00;97973.19;5055178;28;20056;-72
2023/09/15 01:13:37;;;;;;;4.72;1.17;;;12.00;99.90;;;10.46;100.00;97970.69;5050190;28;20041;-72
2023/09/15 01:16:38;;;;;;;3.88;1.23;;;11.90;99.90;;;10.42;100.00;97968.25;5052307;28;20070;-71
2023/09/15 01:19:33;;;;;;;4.75;1.20;;;11.90;99.90;;;10.57;100.00;97961.69;5043694;28;20050;-72
2023/09/15 01:22:06;;;;;;;4.97;1.17;;;11.80;99.90;;;10.60;100.00;97961.56;5056197;28;20052;-72
2023/09/15 01:25:20;;;;;;;5.20;1.20;;;11.80;99.90;;;10.56;100.00;97963.44;5050841;28;20052;-72
2023/09/15 01:28:27;;;;;;;4.60;1.23;;;11.80;99.90;;;10.38;100.00;97964.94;5052390;28;20429;-72
2023/09/15 01:30:55;;;;;;;4.40;1.00;;;11.80;99.90;;;10.36;100.00;97950.31;5058245;28;20131;-73
2023/09/15 01:33:24;;;;;;;5.03;0.93;;;11.70;99.90;;;10.37;100.00;97957.19;5054146;28;20048;-73
2023/09/15 01:35:52;;;;;;;4.18;0.98;;;11.60;99.90;;;10.34;100.00;97954.72;5057514;28;20564;-72
2023/09/15 01:38:20;;;;;;;9.93;1.05;;;11.60;99.90;;;10.44;100.00;97954.31;5058624;28;20078;-73
2023/09/15 01:40:47;;;;;;;2.35;0.93;;;11.60;99.90;;;10.33;100.00;97956.47;5042990;28;20337;-72
2023/09/15 01:43:14;;;;;;;7.10;1.15;;;11.60;99.90;;;10.18;100.00;97952.63;5056634;28;20052;-72
2023/09/15 01:45:41;;;;;;;4.78;1.00;;;11.50;99.90;;;10.35;100.00;97948.63;5054744;28;20071;-71
2023/09/15 01:48:10;;;;;;;6.03;1.38;;;11.50;99.90;;;10.31;100.00;97947.91;5052588;28;20041;-72
2023/09/15 01:50:38;;;;;;;3.72;0.98;;;11.50;99.90;;;10.26;100.00;97950.63;5061035;28;20061;-72
2023/09/15 01:53:05;;;;;;;4.22;1.50;;;11.50;99.90;;;10.24;100.00;97952.41;5056677;28;20059;-74
2023/09/15 01:55:37;;;;;;;3.20;1.10;;;11.40;99.90;;;10.24;100.00;97944.63;5053516;28;20048;-74
2023/09/15 01:58:05;;;;;;;6.07;1.20;;;11.40;99.90;;;10.34;100.00;97945.19;5049816;28;20048;-73
2023/09/15 02:00:37;;;;;;;3.78;1.05;;;11.40;99.90;;;10.27;100.00;97948.88;5057784;28;20040;-74
2023/09/15 02:03:05;;;;;;;3.72;0.80;;;11.50;99.90;;;10.15;100.00;97946.69;5055405;28;20171;-72
2023/09/15 02:05:32;;;;;;;5.63;0.80;;;11.50;99.90;;;10.20;100.00;97937.84;5057944;28;20045;-73
2023/09/15 02:07:59;;;;;;;3.28;1.20;;;11.40;99.90;;;10.12;100.00;97941.63;5056393;28;20044;-73
2023/09/15 02:10:26;;;;;;;4.25;1.30;;;11.40;99.90;;;10.10;100.00;97939.06;5050977;28;20099;-73
2023/09/15 02:12:53;;;;;;;5.70;1.60;;;11.30;99.90;;;10.15;100.00;97938.91;5057934;28;20137;-74
2023/09/15 02:15:21;;;;;;;6.35;1.30;;;11.30;99.90;;;10.08;100.00;97933.13;5055158;28;20455;-73
2023/09/15 02:17:51;;;;;;;4.03;1.13;;;11.30;99.90;;;10.05;100.00;97940.97;5053920;28;20098;-74
2023/09/15 02:20:18;;;;;;;5.75;1.15;;;11.30;99.90;;;9.96;100.00;97942.13;5056256;28;20055;-73
2023/09/15 02:22:45;;;;;;;8.43;1.40;;;11.30;99.90;;;10.05;100.00;97952.19;5057082;28;20074;-74
2023/09/15 02:25:13;;;;;;;4.15;1.08;;;11.30;99.90;;;10.07;100.00;97946.13;5063026;28;20071;-74
2023/09/15 02:27:40;;;;;;;5.20;1.23;;;11.20;99.90;;;10.14;100.00;97934.63;5056312;28;20064;-74
2023/09/15 02:30:08;;;;;;;8.95;1.10;;;11.30;99.90;;;10.04;100.00;97942.72;5054760;28;20078;-73
2023/09/15 02:32:35;;;;;;;4.72;1.20;;;11.30;99.90;;;10.05;100.00;97936.63;5048420;28;20106;-73
2023/09/15 02:35:03;;;;;;;4.30;1.05;;;11.30;99.90;;;9.96;100.00;97941.28;5053045;28;20040;-73
2023/09/15 02:37:30;;;;;;;5.82;1.52;;;11.20;99.90;;;9.91;100.00;97938.03;5056501;28;20540;-73
2023/09/15 02:39:57;;;;;;;6.90;1.35;;;11.10;99.90;;;9.86;100.00;97935.59;5058365;28;20086;-73
2023/09/15 02:42:24;;;;;;;2.67;1.20;;;11.10;99.90;;;9.85;100.00;97931.28;5055710;28;20048;-74
2023/09/15 02:44:51;;;;;;;3.75;1.05;;;11.10;99.90;;;10.06;100.00;97924.53;5058005;28;20181;-74
2023/09/15 02:47:18;;;;;;;9.13;1.73;;;11.10;99.90;;;9.88;100.00;97925.19;5054743;28;20053;-73
2023/09/15 02:49:46;;;;;;;5.05;1.50;;;11.10;99.90;;;9.91;100.00;97919.88;5052940;28;20049;-74
2023/09/15 02:52:13;;;;;;;5.82;1.10;;;11.10;99.90;;;9.77;100.00;97922.94;5054262;28;20051;-73
2023/09/15 02:54:40;;;;;;;6.43;1.40;;;11.10;99.90;;;10.02;100.00;97912.56;5059872;28;20148;-74
2023/09/15 02:57:07;;;;;;;4.10;0.85;;;11.00;99.90;;;10.07;100.00;97907.22;5059059;28;20124;-74
2023/09/15 02:59:34;;;;;;;4.90;1.25;;;11.10;99.90;;;9.84;100.00;97911.47;5039812;28;20052;-74
2023/09/15 03:02:02;;;;;;;4.85;1.30;;;11.10;99.90;;;9.97;100.00;97911.88;5057636;28;20063;-74
2023/09/15 03:04:29;;;;;;;4.63;1.20;;;11.10;99.90;;;9.97;100.00;97904.94;5054410;28;20053;-73
2023/09/15 03:06:56;;;;;;;4.43;1.23;;;11.10;99.90;;;9.87;100.00;97900.97;5054379;28;20059;-73
2023/09/15 03:09:24;;;;;;;4.47;0.85;;;11.10;99.90;;;9.99;100.00;97905.75;5049975;28;20051;-74
2023/09/15 03:11:51;;;;;;;7.55;1.52;;;11.10;99.90;;;9.90;100.00;97897.41;5051144;28;20686;-74
2023/09/15 03:14:19;;;;;;;6.18;1.45;;;11.10;99.90;;;9.84;100.00;97901.09;5058900;28;20500;-73
2023/09/15 03:16:46;;;;;;;4.53;1.05;;;11.10;99.90;;;9.94;100.00;97893.81;5059821;28;20091;-73
2023/09/15 03:19:13;;;;;;;5.95;1.30;;;11.10;99.90;;;9.97;100.00;97904.94;5053614;28;20055;-74
2023/09/15 03:21:41;;;;;;;2.65;1.00;;;11.10;99.90;;;10.11;100.00;97895.84;5056409;28;20045;-74
2023/09/15 03:24:08;;;;;;;6.32;1.20;;;11.10;99.90;;;10.13;100.00;97901.81;5054077;28;20052;-74
2023/09/15 03:26:35;;;;;;;5.68;1.23;;;11.10;99.90;;;10.18;100.00;97895.56;5054378;28;20048;-74
2023/09/15 03:29:03;;;;;;;4.88;1.40;;;11.20;99.90;;;10.06;100.00;97898.59;5058287;28;20063;-73
2023/09/15 03:31:30;;;;;;;5.95;1.17;;;11.20;99.90;;;9.94;100.00;97904.19;5053326;28;20132;-73
2023/09/15 03:33:57;;;;;;;4.10;1.10;;;11.10;99.90;;;10.00;100.00;97898.81;5059246;28;20053;-74
2023/09/15 03:36:28;;;;;;;3.00;0.85;;;11.00;99.90;;;9.90;100.00;97893.09;5060317;28;20041;-73
2023/09/15 03:38:56;;;;;;;5.28;1.45;;;11.10;99.90;;;9.83;100.00;97886.44;5055640;28;20478;-74
2023/09/15 03:41:27;;;;;;;3.40;1.10;;;11.10;99.90;;;9.94;100.00;97889.47;5053364;28;20044;-74
2023/09/15 03:43:55;;;;;;;3.05;1.25;;;11.10;99.90;;;10.06;100.00;97890.81;5055447;28;20263;-74
2023/09/15 03:46:25;;;;;;;6.63;1.40;;;11.10;99.90;;;10.11;100.00;97896.69;5052848;28;20041;-74
2023/09/15 03:48:52;;;;;;;6.25;1.40;;;11.10;99.90;;;10.09;100.00;97887.25;5060059;28;20060;-73
2023/09/15 03:51:19;;;;;;;6.10;1.20;;;11.10;99.90;;;10.02;100.00;97889.22;5054959;28;20570;-74
2023/09/15 03:53:46;;;;;;;2.72;1.08;;;11.10;99.90;;;10.09;100.00;97888.09;5044088;28;20056;-74
2023/09/15 03:56:13;;;;;;;3.88;1.27;;;11.10;99.90;;;10.04;100.00;97887.44;5057788;28;20048;-74
2023/09/15 03:58:40;;;;;;;7.55;1.42;;;11.10;99.90;;;9.99;100.00;97894.50;5056670;28;20132;-74
2023/09/15 04:01:08;;;;;;;4.95;1.30;;;11.10;99.90;;;9.90;100.00;97890.50;5057576;28;20460;-74
2023/09/15 04:03:36;;;;;;;4.22;1.30;;;11.10;99.90;;;9.90;100.00;97890.50;5049986;28;20059;-73
2023/09/15 04:06:04;;;;;;;5.78;1.10;;;11.10;99.90;;;9.76;100.00;97896.16;5053676;28;20049;-73
2023/09/15 04:08:31;;;;;;;4.78;1.20;;;11.00;99.90;;;9.78;100.00;97894.38;5057488;28;20061;-74
2023/09/15 04:10:59;;;;;;;6.97;1.50;;;11.00;99.90;;;9.88;100.00;97889.72;5053274;28;20496;-74
2023/09/15 04:13:26;;;;;;;8.43;1.60;;;11.00;99.90;;;9.79;100.00;97895.22;5052019;28;20130;-73
2023/09/15 04:15:56;;;;;;;4.60;1.20;;;11.00;99.90;;;9.93;100.00;97895.56;5059306;28;20600;-74
2023/09/15 04:18:23;;;;;;;5.95;1.15;;;11.00;99.90;;;9.97;100.00;97889.38;5058238;28;20053;-74
2023/09/15 04:20:50;;;;;;;8.85;1.50;;;11.00;99.90;;;10.10;100.00;97888.94;5039928;28;20045;-74
2023/09/15 04:23:17;;;;;;;5.03;1.27;;;11.10;99.90;;;9.94;100.00;97883.44;5051740;28;20044;-74
2023/09/15 04:25:45;;;;;;;6.13;1.45;;;11.00;99.90;;;9.82;100.00;97882.97;5039422;28;20177;-74
2023/09/15 04:28:13;;;;;;;3.65;1.25;;;11.00;99.90;;;9.78;100.00;97885.72;5043611;28;20077;-74
2023/09/15 04:30:40;;;;;;;5.20;1.25;;;10.90;99.90;;;9.91;100.00;97883.56;5049933;28;20055;-73
2023/09/15 04:33:07;;;;;;;4.10;1.10;;;10.90;99.90;;;9.80;100.00;97877.00;5054047;28;20427;-74
2023/09/15 04:35:34;;;;;;;7.93;1.52;;;10.90;99.90;;;9.79;100.00;97875.31;5056798;28;20044;-73
2023/09/15 04:38:02;;;;;;;7.95;1.75;;;10.90;99.90;;;9.77;100.00;97876.28;5048767;28;20489;-73
2023/09/15 04:40:29;;;;;;;6.90;1.50;;;10.90;99.90;;;9.86;100.00;97875.13;5056994;28;20041;-74
2023/09/15 04:42:59;;;;;;;4.53;1.48;;;10.90;99.90;;;9.72;100.00;97883.38;5052046;28;20049;-73
2023/09/15 04:45:26;;;;;;;5.22;1.17;;;10.90;99.90;;;9.81;100.00;97880.47;5049658;28;20122;-73
2023/09/15 04:47:53;;;;;;;6.97;1.50;;;11.00;99.90;;;9.80;100.00;97883.94;5054524;28;20051;-74
2023/09/15 04:50:21;;;;;;;5.47;1.42;;;10.90;99.90;;;9.90;100.00;97887.03;5047349;28;20469;-74
2023/09/15 04:52:48;;;;;;;6.88;1.77;;;11.00;99.90;;;10.00;100.00;97888.44;5053718;28;20814;-74
2023/09/15 04:55:15;;;;;;;8.13;1.85;;;11.00;99.90;;;9.78;100.00;97888.31;5053621;28;20044;-73
2023/09/15 04:57:42;;;;;;;3.45;1.38;;;10.90;99.90;;;9.80;100.00;97894.31;5039875;28;20044;-73
2023/09/15 05:00:13;;;;;;;4.40;1.25;;;10.90;99.90;;;9.70;100.00;97886.00;5052793;28;20041;-73
2023/09/15 05:02:42;;;;;;;9.35;1.13;;;10.90;99.90;;;9.59;100.00;97893.28;5052332;28;20067;-74
2023/09/15 05:05:09;;;;;;;8.40;1.15;;;10.80;99.90;;;9.36;100.00;97896.66;5050836;28;20390;-73
2023/09/15 05:07:37;;;;;;;3.50;1.05;;;10.70;99.90;;;9.57;100.00;97892.50;5052202;28;20432;-73
2023/09/15 05:10:05;;;;;;;8.38;1.42;;;10.70;99.90;;;9.57;100.00;97889.91;5052459;28;20558;-74
2023/09/15 05:12:32;;;;;;;7.13;1.58;;;10.70;99.90;;;9.48;100.00;97892.81;5061225;28;20063;-74
2023/09/15 05:14:59;;;;;;;2.45;1.02;;;10.70;99.90;;;9.69;100.00;97897.25;5062065;28;20123;-73
2023/09/15 05:17:27;;;;;;;8.70;1.30;;;10.60;99.90;;;9.68;100.00;97894.75;5060328;28;20420;-73
2023/09/15 05:19:56;;;;;;;9.68;2.10;;;10.70;99.90;;;9.66;100.00;97887.00;5060217;28;20049;-74
2023/09/15 05:22:23;;;;;;;8.48;1.70;;;10.70;99.90;;;9.67;100.00;97901.66;5063315;28;20080;-74
2023/09/15 05:24:50;;;;;;;10.65;1.65;;;10.70;99.90;;;9.70;100.00;97901.56;5061185;28;20166;-73
2023/09/15 05:27:21;;;;;;;5.05;1.42;;;10.70;99.90;;;9.73;100.00;97898.84;5064091;28;20160;-73
2023/09/15 05:29:48;;;;;;;6.22;1.30;;;10.80;99.90;;;9.75;100.00;97906.59;5063918;28;20521;-74
2023/09/15 05:32:15;;;;;;;10.45;1.38;;;10.80;99.90;;;9.77;100.00;97897.84;5067176;28;20088;-74
2023/09/15 05:34:42;;;;;;;5.57;1.27;;;10.80;99.90;;;9.84;100.00;97896.75;5064136;28;20044;-74
2023/09/15 05:37:09;;;;;;;4.75;1.20;;;10.80;99.90;;;9.80;100.00;97892.56;5058474;28;20056;-74
2023/09/15 05:39:36;;;;;;;5.47;1.50;;;10.80;99.90;;;9.81;100.00;97901.19;5047741;28;20127;-73
2023/09/15 05:42:04;;;;;;;7.50;1.38;;;10.80;99.90;;;9.71;100.00;97907.59;5059921;28;20079;-74
2023/09/15 05:44:31;;;;;;;5.00;1.38;;;10.80;99.90;;;9.71;100.00;97905.00;5063090;28;20136;-73
2023/09/15 05:47:00;;;;;;;6.90;1.70;;;10.80;99.90;;;9.66;100.00;97899.13;5058248;28;20133;-74
2023/09/15 05:49:27;;;;;;;4.35;1.35;;;10.80;99.90;;;9.64;100.00;97899.16;5049252;28;20401;-73
2023/09/15 05:51:57;;;;;;;7.35;1.42;;;10.70;99.90;;;9.55;100.00;97892.53;5063178;28;20052;-74
2023/09/15 05:54:26;;;;;;;3.53;1.15;;;10.60;99.90;;;9.59;100.00;97896.72;5063166;28;20049;-74
2023/09/15 05:56:53;;;;;;;5.32;1.50;;;10.60;99.90;;;9.65;100.00;97900.88;5058980;28;20055;-74
2023/09/15 05:59:20;;;;;;;4.32;1.23;;;10.60;99.90;;;9.80;100.00;97896.91;5049557;28;20040;-74
2023/09/15 06:01:47;;;;;;;7.97;1.65;;;10.60;99.90;;;9.93;100.00;97903.34;5059189;28;20064;-74
2023/09/15 06:04:15;;;;;;;5.05;1.40;;;10.70;99.90;;;10.12;100.00;97900.94;5065450;28;20136;-74
2023/09/15 06:06:42;;;;;;;5.32;1.40;;;10.80;99.90;;;10.07;100.00;97905.47;5059511;28;20583;-74
2023/09/15 06:09:10;;;;;;;5.53;1.27;;;10.80;99.90;;;10.08;100.00;97901.13;5049608;28;20738;-73
2023/09/15 06:11:37;;;;;;;4.72;1.50;;;10.90;99.90;;;10.03;100.00;97907.34;5058920;28;20068;-74
2023/09/15 06:14:04;;;;;;;4.43;1.50;;;10.90;99.90;;;10.20;100.00;97901.53;5064008;28;20049;-73
2023/09/15 06:16:34;;;;;;;7.22;1.58;;;10.90;99.90;;;10.37;100.00;97903.53;5056767;28;20044;-74
2023/09/15 06:19:02;;;;;;;5.72;1.50;;;11.00;99.90;;;10.43;100.00;97892.09;5060607;28;20059;-74
2023/09/15 06:21:30;;;;;;;3.95;1.27;;;11.10;99.90;;;10.52;100.00;97889.16;5046846;28;20473;-74
2023/09/15 06:23:57;;;;;;;4.28;1.52;;;11.20;99.90;;;10.71;100.00;97891.06;5061430;28;20068;-74
2023/09/15 06:26:24;;;;;;;6.63;1.45;;;11.30;99.90;;;11.02;100.00;97901.97;5058910;28;20056;-74
2023/09/15 06:28:52;;;;;;;9.32;1.52;;;11.40;99.90;;;11.08;100.00;97904.34;5064646;28;20080;-74
2023/09/15 06:31:23;;;;;;;10.32;2.05;;;11.60;99.90;;;11.30;100.00;97885.28;5056838;28;20542;-74
2023/09/15 06:33:50;;;;;;;11.38;1.70;;;11.80;99.90;;;11.49;100.00;97888.81;5058977;28;20467;-74
2023/09/15 06:36:17;;;;;;;5.13;1.30;;;11.90;99.90;;;11.61;100.00;97884.00;5054006;28;20057;-73
2023/09/15 06:38:44;;;;;;;5.53;1.70;;;12.10;99.90;;;11.71;100.00;97885.31;5060049;28;20559;-74
2023/09/15 06:41:13;;;;;;;7.25;2.75;;;12.20;99.90;;;11.84;100.00;97886.50;5064498;28;20044;-74
2023/09/15 06:43:40;;;;;;;8.30;1.65;;;12.30;99.90;;;11.99;100.00;97886.75;5058567;28;20045;-74
2023/09/15 06:46:07;;;;;;;7.60;1.60;;;12.50;99.90;;;12.19;100.00;97884.13;5061099;28;20052;-74
2023/09/15 06:48:34;;;;;;;5.72;1.77;;;12.70;99.90;;;12.17;100.00;97888.56;5063343;28;20037;-74
2023/09/15 06:51:02;;;;;;;8.38;1.73;;;12.80;99.90;;;12.39;100.00;97890.22;5055838;28;20432;-74
2023/09/15 06:53:29;;;;;;;10.43;1.65;;;12.90;99.90;;;12.43;100.00;97886.56;5059112;28;20115;-74
2023/09/15 06:55:56;;;;;;;7.53;1.83;;;13.10;99.90;;;12.51;100.00;97887.91;5055388;28;20572;-74
2023/09/15 06:58:24;;;;;;;6.72;1.85;;;13.10;99.90;;;12.66;100.00;97890.75;5062159;28;20052;-74
2023/09/15 07:00:55;;;;;;;10.40;1.35;;;13.30;99.90;;;12.73;100.00;97892.97;5056529;28;20056;-74
2023/09/15 07:03:24;;;;;;;6.57;1.60;;;13.40;99.90;;;12.85;100.00;97886.34;5063640;28;20048;-74
2023/09/15 07:05:52;;;;;;;5.43;1.60;;;13.50;99.90;;;12.98;100.00;97884.03;5057576;28;20438;-74
2023/09/15 07:08:19;;;;;;;6.72;1.30;;;13.60;99.90;;;13.11;100.00;97879.06;5055859;28;20587;-74
2023/09/15 07:10:51;;;;;;;7.53;1.33;;;13.70;99.90;;;13.29;100.00;97875.59;5058763;28;20053;-74
2023/09/15 07:13:18;;;;;;;5.80;1.52;;;13.80;99.90;;;13.29;100.00;97875.59;5058802;28;20475;-74
2023/09/15 07:15:45;;;;;;;7.00;1.38;;;13.90;99.90;;;13.35;100.00;97877.91;5059368;28;20413;-74
2023/09/15 07:18:13;;;;;;;5.70;1.40;;;14.10;99.90;;;13.71;100.00;97869.16;5045260;28;20060;-73
2023/09/15 07:20:40;;;;;;;8.13;1.63;;;14.20;99.90;;;13.81;100.00;97874.75;5062644;28;20127;-73
2023/09/15 07:23:08;;;;;;;5.55;1.42;;;14.40;99.90;;;13.98;100.00;97874.75;5056347;28;20076;-73
2023/09/15 07:25:35;;;;;;;7.50;1.35;;;14.50;99.90;;;13.90;100.00;97873.44;5059173;28;20127;-73
2023/09/15 07:28:03;;;;;;;7.43;1.60;;;14.60;99.90;;;14.07;100.00;97869.97;5060971;28;20048;-73
2023/09/15 07:30:31;;;;;;;7.90;1.65;;;14.70;99.90;;;13.94;100.00;97869.78;5054761;28;20045;-73
2023/09/15 07:32:58;;;;;;;4.57;2.13;;;14.70;99.90;;;14.06;100.00;97868.28;5046754;28;20428;-73
2023/09/15 07:35:25;;;;;;;5.32;1.55;;;14.80;99.90;;;14.08;100.00;97875.09;5056997;28;20048;-73
2023/09/15 07:37:52;;;;;;;8.20;1.88;;;14.80;99.90;;;14.17;100.00;97860.75;5057483;28;20076;-73
2023/09/15 07:40:22;;;;;;;9.30;1.77;;;14.80;99.90;;;14.40;100.00;97862.97;5062476;28;20509;-73
2023/09/15 07:42:51;;;;;;;4.35;1.20;;;14.90;99.90;;;14.36;100.00;97856.22;5060030;28;20505;-73
2023/09/15 07:45:19;;;;;;;6.80;1.40;;;15.00;99.90;;;14.58;100.00;97850.72;5057003;28;20072;-73
2023/09/15 07:47:49;;;;;;;5.45;1.67;;;15.10;99.90;;;15.08;100.00;97855.84;5061894;28;20234;-73
2023/09/15 07:50:17;;;;;;;9.70;1.88;;;15.30;99.90;;;15.53;100.00;97846.28;5060390;28;20131;-73
2023/09/15 07:52:45;;;;;;;7.18;1.50;;;15.50;99.90;;;16.01;100.00;97839.97;5051440;28;20126;-73
2023/09/15 07:55:13;;;;;;;6.32;1.90;;;15.60;99.90;;;16.25;100.00;97840.22;5056527;28;20102;-73
2023/09/15 07:57:40;;;;;;;7.15;1.88;;;15.90;99.90;;;16.88;100.00;97845.97;5058909;28;20999;-73
2023/09/15 08:00:10;;;;;;;7.22;2.00;;;16.40;99.90;;;17.17;100.00;97844.06;5071424;28;20043;-73
2023/09/15 08:02:39;;;;;;;6.38;1.70;;;17.10;99.90;;;17.86;100.00;97839.53;5039806;28;20126;-73
2023/09/15 08:05:08;;;;;;;8.00;1.60;;;18.00;99.90;;;18.46;100.00;97842.44;5058238;28;20049;-72
2023/09/15 08:07:35;;;;;;;5.35;1.70;;;18.90;99.90;;;18.50;100.00;97838.66;5063332;28;20600;-72
2023/09/15 08:10:04;;;;;;;7.38;1.80;;;19.70;99.90;;;18.34;100.00;97842.34;5058575;28;20102;-74
2023/09/15 08:12:34;;;;;;;8.35;1.65;;;20.30;99.90;;;18.53;100.00;97847.13;5062363;28;20048;-72
2023/09/15 08:15:07;;;;;;;7.03;1.70;;;21.00;99.90;;;18.56;100.00;97849.53;5056568;28;20110;-72
2023/09/15 08:17:34;;;;;;;4.35;1.50;;;21.50;99.90;;;18.65;100.00;97853.31;5063766;28;20462;-72
2023/09/15 08:20:03;;;;;;;3.55;1.30;;;21.70;99.90;;;19.15;100.00;97853.28;5061820;28;20048;-72
2023/09/15 08:22:32;;;;;;;6.10;1.85;;;22.10;99.90;;;19.52;100.00;97842.66;5059845;28;20118;-72
2023/09/15 08:25:03;;;;;;;4.50;1.40;;;22.50;99.90;;;19.88;100.00;97849.59;5057211;28;20073;-72
2023/09/15 08:27:31;;;;;;;6.95;1.63;;;22.60;99.90;;;19.62;100.00;97856.81;5056210;28;20053;-72
2023/09/15 08:29:58;;;;;;;6.10;1.67;;;22.70;99.90;;;20.21;100.00;97859.38;5055942;28;20056;-72
2023/09/15 08:32:25;;;;;;;4.68;1.42;;;23.00;99.90;;;20.44;100.00;97857.56;5060781;28;20053;-72
2023/09/15 08:34:54;;;;;;;6.70;1.70;;;23.20;99.90;;;20.80;100.00;97862.72;5056374;28;20516;-73
2023/09/15 08:37:21;;;;;;;5.68;1.50;;;23.40;99.90;;;20.81;100.00;97859.97;5055466;28;20048;-72
2023/09/15 08:39:48;;;;;;;7.25;1.35;;;23.30;99.90;;;21.07;100.00;97859.66;5062175;28;20139;-72
2023/09/15 08:42:26;;;;;;;4.65;1.50;;;23.50;99.90;;;21.21;100.00;97861.16;5060066;28;20147;-73
2023/09/15 08:44:56;;;;;;;3.83;1.40;;;24.10;99.90;;;21.74;100.00;97858.59;5056656;28;20102;-72
2023/09/15 08:47:25;;;;;;;5.90;1.27;;;24.40;99.90;;;21.23;100.00;97860.09;5054388;28;20110;-72
2023/09/15 08:49:53;;;;;;;5.18;1.50;;;24.30;99.90;;;21.70;100.00;97862.44;5056875;28;20037;-72
2023/09/15 08:52:21;;;;;;;5.07;1.55;;;24.10;99.90;;;21.55;100.00;97861.91;5060506;28;20064;-72
2023/09/15 08:54:52;;;;;;;3.03;1.20;;;24.00;99.90;;;21.58;100.00;97855.56;5067284;28;20051;-72
2023/09/15 08:57:22;;;;;;;4.78;1.83;;;24.00;99.90;;;20.92;100.00;97866.19;5063594;28;20505;-71
2023/09/15 08:59:50;;;;;;;5.15;1.83;;;23.90;99.90;;;20.76;100.00;97867.41;5063443;28;20139;-72
2023/09/15 09:02:22;;;;;;;5.90;1.60;;;23.60;99.90;;;21.59;100.00;97865.16;5043288;28;20049;-72
2023/09/15 09:04:52;;;;;;;5.63;1.48;;;23.80;99.90;;;20.97;100.00;97859.56;5054515;28;20076;-72
2023/09/15 09:07:24;;;;;;;5.50;1.55;;;24.00;99.90;;;21.00;100.00;97869.03;5046998;28;20057;-72
2023/09/15 09:09:53;;;;;;;8.40;1.52;;;23.80;99.90;;;21.34;100.00;97861.00;5043874;28;20055;-72
2023/09/15 09:12:21;;;;;;;6.85;1.77;;;23.70;99.90;;;21.42;100.00;97859.47;5043115;28;20048;-72
2023/09/15 09:14:53;;;;;;;3.58;1.30;;;23.90;99.90;;;21.48;100.00;97853.69;5045081;28;20098;-73
2023/09/15 09:17:22;;;;;;;8.68;1.40;;;24.00;99.90;;;22.18;100.00;97853.97;5018763;28;20048;-72
2023/09/15 09:19:50;;;;;;;4.45;1.20;;;24.10;99.90;;;22.27;100.00;97853.22;5030063;28;20052;-74
2023/09/15 09:22:22;;;;;;;3.25;1.08;;;24.40;99.90;;;22.80;100.00;97841.56;5031694;28;20069;-74
2023/09/15 09:24:55;;;;;;;5.55;1.27;;;24.90;99.90;;;22.73;100.00;97849.19;5033662;28;20076;-73
2023/09/15 09:27:34;;;;;;;4.20;1.48;;;25.00;99.90;;;23.12;100.00;97841.38;5035298;28;20045;-73
2023/09/15 09:30:01;;;;;;;6.00;1.48;;;25.00;99.90;;;23.16;100.00;97841.94;5022866;28;20746;-74
2023/09/15 09:32:29;;;;;;;5.43;1.83;;;25.00;99.90;;;22.44;100.00;97851.78;5039686;28;20063;-73
2023/09/15 09:34:56;;;;;;;4.30;1.70;;;25.00;99.90;;;22.68;100.00;97848.78;5036406;28;20049;-73
2023/09/15 09:37:26;;;;;;;9.38;2.25;;;24.90;99.90;;;22.53;100.00;97847.47;5025578;28;20523;-73
2023/09/15 09:39:53;;;;;;;5.35;1.65;;;24.60;99.90;;;23.23;100.00;97839.56;5040405;28;20048;-72
2023/09/15 09:42:25;;;;;;;7.93;1.45;;;24.60;99.90;;;23.23;100.00;97828.97;5038757;28;20511;-70
2023/09/15 09:44:52;;;;;;;7.70;1.90;;;25.30;99.90;;;23.46;100.00;97824.25;5035920;28;20056;-74
2023/09/15 09:47:22;;;;;;;5.68;1.63;;;24.90;99.90;;;23.64;100.00;97822.53;5036440;28;20364;-74
2023/09/15 09:49:51;;;;;;;5.55;1.77;;;25.10;99.90;;;23.87;100.00;97822.25;5055642;28;20551;-73
2023/09/15 09:52:21;;;;;;;6.40;2.00;;;25.30;99.90;;;23.61;100.00;97825.50;5037792;28;20057;-72
2023/09/15 09:54:50;;;;;;;5.03;1.80;;;25.50;99.90;;;24.04;100.00;97821.53;5031138;28;20056;-73
2023/09/15 09:57:19;;;;;;;3.25;1.27;;;25.60;99.90;;;25.08;100.00;97815.16;5041258;28;20094;-73
2023/09/15 09:59:47;;;;;;;5.25;1.80;;;25.70;99.90;;;24.75;100.00;97807.69;5041498;28;20060;-74
2023/09/15 10:02:14;;;;;;;3.90;1.50;;;25.80;99.90;;;24.23;100.00;97807.34;5043320;28;20041;-74
2023/09/15 10:04:41;;;;;;;5.03;1.65;;;25.90;99.70;;;23.90;100.00;97811.34;5041883;28;20049;-73
2023/09/15 10:07:08;;;;;;;5.47;1.45;;;25.80;99.90;;;24.40;100.00;97811.91;5043880;28;20096;-72
2023/09/15 10:09:36;;;;;;;2.97;1.17;;;25.90;99.90;;;25.30;100.00;97806.75;5037798;28;20099;-74
2023/09/15 10:12:04;;;;;;;4.82;1.35;;;26.00;99.90;;;24.91;100.00;97807.03;5041386;28;20045;-74
2023/09/15 10:14:31;;;;;;;4.63;1.65;;;26.10;99.90;;;24.15;100.00;97793.97;5040366;28;20050;-73
2023/09/15 10:16:59;;;;;;;3.75;1.42;;;26.20;99.60;;;24.15;100.00;97802.78;5029194;28;20047;-73
2023/09/15 10:19:26;;;;;;;4.78;1.88;;;25.90;99.80;;;23.71;100.00;97794.50;5044955;28;20161;-73
2023/09/15 10:21:55;;;;;;;2.92;1.30;;;26.00;99.90;;;23.49;100.00;97790.38;5036833;28;20110;-73